Terminal Aerodrome Forecast
Issued by NWS

Home | Current Version | Previous Version | Text Only | Print | Product List | Glossary On
Versions: 1 2 3 4 5 6 7 8 9 10 11 12 13
000
FTUS43 KMQT 241135
TAFCMX
TAF
KCMX 241135Z 2412/2512 22012KT P6SM BKN140 WS020/23045KT
     FM241400 23012KT P6SM BKN100
     FM241800 25012G20KT 6SM -SHRA OVC030
     FM242100 26015G23KT 5SM -SHRA BR OVC010
     FM250600 28022G30KT P6SM BKN020=

USA.gov is the U.S. government's official web portal to all federal, state and local government web resources and services.